Terminal Aerodrome Forecast
Issued by NWS Sioux Falls, SD

Home | Current Version | Previous Version | Graphics & Text | Print | Product List | Glossary On
Versions: 1 2 3 4 5 6 7 8 9 10 11 12 13 14 15 16 17 18 19 20 21
069
FTUS43 KFSD 201413 AAA
TAFFSD
TAF AMD
KFSD 201413Z 2014/2112 33010KT 6SM -SN FEW025 SCT070
     FM201500 32011G20KT P6SM FEW020 BKN110
     FM202300 31010KT P6SM SCT070
     FM210500 30007KT P6SM FEW200=

USA.gov is the U.S. government's official web portal to all federal, state and local government web resources and services.